Time;durP1;ratioP1;P1;durP2;ratioP2;P2;SDS_P1;SDS_P2;PMS_P1;PMS_P2;Temp;Humidity;BMP_temperature;BMP_pressure;BME280_temperature;BME280_humidity;BME280_pressure;Samples;Min_cycle;Max_cycle;Signal;HPM_P1;HPM_P2
2023/10/24 00:00:46;;;;;;;26.10;21.30;;;;;;;9.80;100.00;99833.35;176783;1265;46133;-84
2023/10/24 00:05:32;;;;;;;29.90;18.80;;;;;;;9.80;100.00;99831.89;176261;1268;46148;-84
2023/10/24 00:09:35;;;;;;;26.20;19.00;;;;;;;9.87;100.00;99835.94;176319;1266;59566;-85
2023/10/24 00:13:38;;;;;;;24.70;18.90;;;;;;;9.92;100.00;99836.18;176127;1268;46027;-84
2023/10/24 00:17:43;;;;;;;36.20;21.30;;;;;;;9.98;100.00;99838.91;175991;1267;46025;-84
2023/10/24 00:21:46;;;;;;;31.10;21.70;;;;;;;10.03;100.00;99837.44;176059;1264;46116;-84
2023/10/24 00:25:53;;;;;;;24.90;19.70;;;;;;;10.06;100.00;99830.09;176690;1266;45955;-84
2023/10/24 00:29:56;;;;;;;31.80;21.20;;;;;;;10.10;100.00;99824.73;176626;1262;59408;-84
2023/10/24 00:34:25;;;;;;;33.70;22.40;;;;;;;10.18;100.00;99823.41;176813;1263;46295;-84
2023/10/24 00:38:28;;;;;;;31.20;21.10;;;;;;;10.26;100.00;99824.65;176505;1265;46458;-84
2023/10/24 00:42:31;;;;;;;29.40;22.20;;;;;;;10.31;100.00;99820.27;176357;1262;46016;-84
2023/10/24 00:46:37;;;;;;;27.00;19.50;;;;;;;10.35;100.00;99806.28;176523;1264;45981;-84
2023/10/24 00:50:43;;;;;;;38.40;20.90;;;;;;;10.39;100.00;99798.45;176566;1268;58291;-84
2023/10/24 00:54:48;;;;;;;30.60;23.00;;;;;;;10.41;100.00;99796.73;176547;1262;46316;-85
2023/10/24 00:58:52;;;;;;;34.10;21.60;;;;;;;10.43;100.00;99782.38;176685;1264;46097;-85
2023/10/24 01:02:55;;;;;;;29.60;19.10;;;;;;;10.44;100.00;99772.59;176850;1266;46191;-84
2023/10/24 01:07:00;;;;;;;32.40;19.90;;;;;;;10.44;100.00;99774.89;176932;1262;45951;-84
2023/10/24 01:11:04;;;;;;;36.00;19.70;;;;;;;10.47;100.00;99784.57;176820;1262;59893;-84
2023/10/24 01:15:08;;;;;;;22.70;17.30;;;;;;;10.44;100.00;99785.30;176738;1268;45842;-84
2023/10/24 01:19:15;;;;;;;34.00;21.70;;;;;;;10.41;100.00;99786.84;176699;1266;46042;-83
2023/10/24 01:23:19;;;;;;;33.90;21.00;;;;;;;10.50;100.00;99785.32;176893;1262;46013;-83
2023/10/24 01:27:27;;;;;;;32.10;19.90;;;;;;;10.51;100.00;99780.96;176975;1262;46114;-84
2023/10/24 01:31:34;;;;;;;28.50;21.30;;;;;;;10.57;100.00;99772.48;176858;1262;59555;-85
2023/10/24 01:35:42;;;;;;;28.40;20.20;;;;;;;10.64;100.00;99764.97;176918;1265;46105;-85
2023/10/24 01:39:45;;;;;;;37.60;25.00;;;;;;;10.71;100.00;99764.10;176518;1262;46166;-84
2023/10/24 01:43:48;;;;;;;30.40;21.40;;;;;;;10.75;100.00;99755.84;176497;1262;46112;-85
2023/10/24 01:48:12;;;;;;;26.00;19.90;;;;;;;10.77;100.00;99750.29;176710;1263;45856;-85
2023/10/24 01:52:15;;;;;;;31.60;21.90;;;;;;;10.70;100.00;99754.05;177161;1263;58345;-84
2023/10/24 01:56:18;;;;;;;30.10;20.80;;;;;;;10.62;100.00;99751.98;176726;1262;46812;-84
2023/10/24 02:00:22;;;;;;;27.30;20.10;;;;;;;10.53;100.00;99756.13;176739;1262;45962;-84
2023/10/24 02:04:25;;;;;;;37.50;20.00;;;;;;;10.49;100.00;99756.21;176465;1263;46022;-84
2023/10/24 02:08:28;;;;;;;27.50;19.50;;;;;;;10.52;100.00;99752.66;173603;1263;3852025;-85
2023/10/24 02:12:34;;;;;;;32.80;22.10;;;;;;;10.54;100.00;99740.96;176720;1263;46273;-84
2023/10/24 02:16:38;;;;;;;28.90;19.20;;;;;;;10.60;100.00;99731.98;176536;1264;46119;-84
2023/10/24 02:20:41;;;;;;;24.80;19.40;;;;;;;10.65;100.00;99742.15;176656;1268;46186;-85
2023/10/24 02:24:44;;;;;;;28.90;21.10;;;;;;;10.68;100.00;99734.77;176546;1264;46135;-85
2023/10/24 02:28:48;;;;;;;29.50;20.40;;;;;;;10.71;100.00;99729.54;176705;1267;46135;-84
2023/10/24 02:32:51;;;;;;;31.40;19.50;;;;;;;10.73;100.00;99721.00;176496;1264;58445;-85
2023/10/24 02:36:54;;;;;;;35.10;21.60;;;;;;;10.70;100.00;99717.16;176714;1262;45997;-84
2023/10/24 02:40:57;;;;;;;25.40;19.30;;;;;;;10.70;100.00;99716.69;176561;1266;46104;-83
2023/10/24 02:45:00;;;;;;;33.30;21.90;;;;;;;10.72;100.00;99727.33;176364;1262;46129;-83
2023/10/24 02:49:56;;;;;;;36.30;23.00;;;;;;;10.72;100.00;99723.94;176662;1262;46137;-84
2023/10/24 02:54:00;;;;;;;30.30;21.50;;;;;;;10.74;100.00;99713.89;176757;1262;59244;-84
2023/10/24 02:58:10;;;;;;;26.80;18.70;;;;;;;10.75;100.00;99732.77;176682;1263;46097;-83
2023/10/24 03:02:13;;;;;;;38.80;21.10;;;;;;;10.74;100.00;99724.02;177063;1262;45966;-83
2023/10/24 03:06:18;;;;;;;33.40;21.70;;;;;;;10.74;100.00;99718.31;176567;1264;46169;-85
2023/10/24 03:10:26;;;;;;;28.00;20.30;;;;;;;10.75;100.00;99716.08;176806;1262;45995;-85
2023/10/24 03:14:30;;;;;;;30.10;19.40;;;;;;;10.75;100.00;99715.54;176895;1267;57922;-85
2023/10/24 03:18:34;;;;;;;27.30;17.50;;;;;;;10.77;100.00;99727.71;177306;1262;46016;-85
2023/10/24 03:28:03;;;;;;;24.40;19.80;;;;;;;10.69;100.00;99720.80;176978;1262;46101;-85
2023/10/24 03:32:07;;;;;;;25.90;17.90;;;;;;;10.69;100.00;99711.77;177198;1262;46114;-85
2023/10/24 03:36:12;;;;;;;26.50;18.70;;;;;;;10.73;100.00;99717.50;176943;1264;59267;-85
2023/10/24 03:40:16;;;;;;;23.60;19.20;;;;;;;10.76;100.00;99724.88;176751;1268;46165;-85
2023/10/24 03:44:19;;;;;;;24.50;17.90;;;;;;;10.78;100.00;99724.46;176731;1262;46111;-85
2023/10/24 03:48:22;;;;;;;22.10;16.50;;;;;;;10.82;100.00;99714.54;176758;1262;46227;-85
2023/10/24 03:52:26;;;;;;;27.60;19.40;;;;;;;10.79;100.00;99703.83;176580;1268;46089;-85
2023/10/24 03:56:35;;;;;;;21.00;18.00;;;;;;;10.75;100.00;99693.04;176496;1263;59634;-85
2023/10/24 04:00:38;;;;;;;25.30;18.00;;;;;;;10.69;100.00;99679.03;176838;1262;46045;-83
2023/10/24 04:04:41;;;;;;;23.80;18.50;;;;;;;10.62;100.00;99667.62;176915;1265;46227;-86
2023/10/24 04:09:51;;;;;;;26.00;19.10;;;;;;;10.61;100.00;99658.69;176735;1266;46001;-86
2023/10/24 04:13:55;;;;;;;27.50;20.10;;;;;;;10.61;100.00;99661.66;176927;1267;45976;-86
2023/10/24 04:18:23;;;;;;;23.60;18.60;;;;;;;10.64;100.00;99659.27;176588;1266;58595;-85
2023/10/24 04:22:27;;;;;;;39.30;22.80;;;;;;;10.68;100.00;99662.10;176582;1263;46155;-85
2023/10/24 04:26:30;;;;;;;41.00;27.10;;;;;;;10.70;100.00;99660.77;176849;1262;46056;-85
2023/10/24 04:30:34;;;;;;;56.60;35.80;;;;;;;10.69;100.00;99655.60;176731;1266;46032;-85
2023/10/24 04:34:38;;;;;;;43.20;28.20;;;;;;;10.65;100.00;99649.06;176888;1263;46121;-86
2023/10/24 04:38:42;;;;;;;32.50;22.70;;;;;;;10.57;100.00;99639.98;177009;1263;57946;-85
2023/10/24 04:42:46;;;;;;;29.10;19.40;;;;;;;10.49;100.00;99640.02;176693;1264;45968;-86
2023/10/24 04:46:50;;;;;;;28.90;20.30;;;;;;;10.51;100.00;99632.62;176649;1263;46045;-85
2023/10/24 04:50:54;;;;;;;36.20;21.60;;;;;;;10.48;100.00;99631.12;176576;1264;46083;-85
2023/10/24 04:54:57;;;;;;;34.10;22.60;;;;;;;10.46;100.00;99638.04;176766;1263;47367;-85
2023/10/24 04:59:01;;;;;;;29.00;18.00;;;;;;;10.41;100.00;99629.25;176899;1264;57939;-86
2023/10/24 05:03:06;;;;;;;24.10;19.50;;;;;;;10.32;100.00;99617.84;177067;1264;46034;-85
2023/10/24 05:07:10;;;;;;;29.10;21.30;;;;;;;10.31;100.00;99603.38;177117;1264;46102;-85
2023/10/24 05:12:19;;;;;;;27.10;21.20;;;;;;;10.33;100.00;99602.65;176697;1262;46000;-85
2023/10/24 05:16:23;;;;;;;26.20;19.10;;;;;;;10.34;100.00;99606.61;176876;1264;46007;-86
2023/10/24 05:20:38;;;;;;;23.40;20.10;;;;;;;10.31;100.00;99603.54;176778;1262;57498;-86
2023/10/24 05:24:42;;;;;;;34.10;22.70;;;;;;;10.36;100.00;99607.67;177188;1263;46105;-85
2023/10/24 05:28:45;;;;;;;29.10;21.00;;;;;;;10.40;100.00;99617.79;176615;1265;46076;-85
2023/10/24 05:32:50;;;;;;;27.10;18.70;;;;;;;10.47;100.00;99620.55;176763;1262;45990;-85
2023/10/24 05:36:54;;;;;;;28.20;20.40;;;;;;;10.50;100.00;99619.72;176706;1266;45920;-85
2023/10/24 05:41:02;;;;;;;27.80;19.60;;;;;;;10.51;100.00;99624.04;176874;1263;59233;-84
2023/10/24 05:45:06;;;;;;;29.70;19.40;;;;;;;10.50;100.00;99626.48;177205;1264;44854;-84
2023/10/24 05:49:09;;;;;;;31.50;19.90;;;;;;;10.47;100.00;99627.89;176604;1266;46031;-84
2023/10/24 05:53:13;;;;;;;32.60;22.10;;;;;;;10.44;100.00;99629.51;176549;1263;46378;-86
2023/10/24 05:57:16;;;;;;;31.50;19.80;;;;;;;10.37;100.00;99624.58;176819;1263;46211;-85
2023/10/24 06:01:21;;;;;;;30.90;21.10;;;;;;;10.36;100.00;99625.55;176366;1263;58310;-85
2023/10/24 06:05:30;;;;;;;31.80;20.20;;;;;;;10.38;100.00;99636.24;176519;1263;45986;-85
2023/10/24 06:09:33;;;;;;;31.90;20.90;;;;;;;10.42;100.00;99640.52;176952;1262;46187;-85
2023/10/24 06:13:36;;;;;;;31.90;20.10;;;;;;;10.46;100.00;99642.50;176463;1269;47801;-85
2023/10/24 06:17:39;;;;;;;29.10;19.40;;;;;;;10.51;100.00;99641.77;176400;1266;45978;-84
2023/10/24 06:21:43;;;;;;;35.60;21.80;;;;;;;10.60;100.00;99626.33;176658;1266;58959;-85
2023/10/24 06:26:52;;;;;;;30.00;20.10;;;;;;;10.61;100.00;99618.75;176469;1269;46224;-84
2023/10/24 06:31:02;;;;;;;32.20;20.60;;;;;;;10.64;100.00;99612.27;176563;1263;46043;-85
2023/10/24 06:35:18;;;;;;;26.30;19.80;;;;;;;10.68;100.00;99617.58;176265;1265;46005;-85
2023/10/24 06:39:21;;;;;;;32.60;20.40;;;;;;;10.73;100.00;99628.48;176207;1269;45979;-85
2023/10/24 06:43:26;;;;;;;33.60;21.90;;;;;;;10.79;100.00;99625.95;176477;1267;58224;-85
2023/10/24 06:47:30;;;;;;;36.50;20.20;;;;;;;10.86;100.00;99620.31;176899;1262;46033;-85
2023/10/24 06:51:59;;;;;;;28.00;20.00;;;;;;;10.92;100.00;99603.52;176511;1266;45992;-85
2023/10/24 06:56:02;;;;;;;29.10;20.20;;;;;;;10.99;100.00;99605.09;177591;1263;46003;-85
2023/10/24 07:00:32;;;;;;;31.60;19.00;;;;;;;11.08;100.00;99608.84;177631;1264;45971;-85
2023/10/24 07:04:35;;;;;;;25.10;20.00;;;;;;;11.16;100.00;99604.38;177588;1263;58031;-84
2023/10/24 07:08:40;;;;;;;30.90;22.20;;;;;;;11.20;100.00;99604.34;177223;1264;46157;-84
2023/10/24 07:12:43;;;;;;;28.30;19.70;;;;;;;11.30;100.00;99601.69;176869;1268;46202;-85
2023/10/24 07:16:55;;;;;;;32.90;20.80;;;;;;;11.40;100.00;99597.89;176290;1264;46087;-84
2023/10/24 07:20:58;;;;;;;24.40;18.20;;;;;;;11.49;100.00;99593.69;176742;1265;46574;-84
2023/10/24 07:25:02;;;;;;;27.60;19.60;;;;;;;11.57;100.00;99587.39;176787;1263;58204;-84
2023/10/24 07:29:36;;;;;;;32.60;20.50;;;;;;;11.62;100.00;99588.67;176756;1268;46086;-84
2023/10/24 07:33:39;;;;;;;45.10;20.80;;;;;;;11.64;100.00;99587.43;176740;1262;46571;-84
2023/10/24 07:37:42;;;;;;;29.10;21.00;;;;;;;11.72;100.00;99579.14;176654;1266;46106;-84
2023/10/24 07:41:45;;;;;;;34.20;19.60;;;;;;;11.78;100.00;99565.80;176459;1264;45981;-84
2023/10/24 07:45:55;;;;;;;24.90;18.70;;;;;;;11.84;100.00;99565.34;176606;1269;58046;-84
2023/10/24 07:50:19;;;;;;;31.40;20.70;;;;;;;11.92;100.00;99561.42;176720;1264;45985;-84
2023/10/24 07:54:22;;;;;;;34.20;20.50;;;;;;;11.92;100.00;99547.91;176971;1264;45987;-84
2023/10/24 08:04:17;;;;;;;29.00;18.90;;;;;;;12.13;100.00;99529.98;176677;1264;45988;-84
2023/10/24 08:08:21;;;;;;;27.60;22.00;;;;;;;12.24;100.00;99520.08;176456;1269;57540;-85
2023/10/24 08:13:15;;;;;;;23.70;17.70;;;;;;;12.39;100.00;99504.98;176367;1263;46082;-83
2023/10/24 08:17:18;;;;;;;26.60;19.20;;;;;;;12.55;100.00;99499.50;176823;1266;46338;-84
2023/10/24 08:21:21;;;;;;;30.90;19.80;;;;;;;12.71;100.00;99505.33;176772;1266;46134;-84
2023/10/24 08:25:51;;;;;;;28.10;19.50;;;;;;;12.86;100.00;99509.10;176466;1264;46093;-84
2023/10/24 08:29:57;;;;;;;28.50;21.30;;;;;;;13.01;100.00;99497.85;176705;1266;59894;-84
2023/10/24 08:34:00;;;;;;;35.10;19.40;;;;;;;13.16;100.00;99487.49;176614;1264;46212;-84
2023/10/24 08:38:05;;;;;;;24.30;18.50;;;;;;;13.27;100.00;99474.63;176493;1267;46130;-85
2023/10/24 08:42:11;;;;;;;34.60;22.10;;;;;;;13.37;100.00;99476.09;176686;1263;46103;-85
2023/10/24 08:46:15;;;;;;;30.30;20.50;;;;;;;13.44;100.00;99468.55;176518;1264;46034;-85
2023/10/24 08:50:46;;;;;;;28.30;20.70;;;;;;;13.57;100.00;99472.34;176374;1264;59277;-84
2023/10/24 08:54:51;;;;;;;33.20;25.80;;;;;;;13.67;100.00;99466.37;176648;1263;45987;-85
2023/10/24 08:58:57;;;;;;;31.90;19.80;;;;;;;13.79;100.00;99465.04;176598;1264;47672;-85
2023/10/24 09:03:01;;;;;;;32.00;22.50;;;;;;;13.96;100.00;99465.38;176474;1267;46030;-85
2023/10/24 09:07:36;;;;;;;30.60;18.70;;;;;;;14.06;100.00;99466.36;176547;1264;46056;-85
2023/10/24 09:11:58;;;;;;;27.60;18.30;;;;;;;14.15;100.00;99465.30;176942;1264;58553;-84
2023/10/24 09:16:08;;;;;;;26.40;18.10;;;;;;;14.15;100.00;99463.89;176663;1264;46037;-84
2023/10/24 09:20:55;;;;;;;28.90;20.00;;;;;;;14.22;100.00;99459.69;176456;1264;46116;-84
2023/10/24 09:24:59;;;;;;;26.20;19.50;;;;;;;14.31;100.00;99457.46;176598;1263;46025;-84
2023/10/24 09:29:02;;;;;;;24.80;18.10;;;;;;;14.36;100.00;99453.89;176632;1264;45965;-84
2023/10/24 09:33:05;;;;;;;28.60;20.00;;;;;;;14.45;100.00;99451.82;176566;1263;58290;-85
2023/10/24 09:38:14;;;;;;;26.50;16.60;;;;;;;14.49;100.00;99450.42;176407;1262;46001;-84
2023/10/24 09:42:24;;;;;;;24.30;17.60;;;;;;;14.53;100.00;99445.51;176652;1264;46495;-84
2023/10/24 09:46:52;;;;;;;25.70;19.90;;;;;;;14.74;100.00;99441.60;176455;1266;46322;-84
2023/10/24 09:50:57;;;;;;;;;;;;;;;14.99;100.00;99446.67;176675;1267;46571;-84
2023/10/24 09:55:01;;;;;;;25.20;18.10;;;;;;;15.11;100.00;99441.94;176448;1268;57818;-85
2023/10/24 09:59:05;;;;;;;22.00;17.70;;;;;;;15.37;100.00;99420.58;176421;1264;46118;-84
2023/10/24 10:03:09;;;;;;;20.30;14.90;;;;;;;15.56;100.00;99414.06;176307;1264;46116;-85
2023/10/24 10:07:16;;;;;;;22.90;17.10;;;;;;;15.71;100.00;99401.88;176507;1263;46043;-84
2023/10/24 10:11:21;;;;;;;18.60;14.80;;;;;;;15.82;100.00;99389.04;176779;1263;46016;-84
2023/10/24 10:15:46;;;;;;;21.20;14.80;;;;;;;15.93;100.00;99376.80;177150;1263;57923;-84
2023/10/24 10:20:11;;;;;;;21.20;15.00;;;;;;;16.06;100.00;99365.19;176725;1264;46182;-84
2023/10/24 10:24:33;;;;;;;21.70;15.40;;;;;;;16.17;100.00;99355.19;176724;1264;46088;-85
2023/10/24 10:28:55;;;;;;;17.00;14.20;;;;;;;16.26;100.00;99344.25;176948;1263;46108;-85
2023/10/24 10:33:18;;;;;;;24.50;14.60;;;;;;;16.34;100.00;99345.36;176711;1264;46022;-85
2023/10/24 10:37:22;;;;;;;19.50;14.40;;;;;;;16.43;100.00;99336.75;176574;1264;59249;-84
2023/10/24 10:42:16;;;;;;;18.10;13.20;;;;;;;16.54;100.00;99326.69;176710;1264;46170;-84
2023/10/24 10:46:30;;;;;;;20.90;14.20;;;;;;;16.49;100.00;99331.33;176732;1263;46622;-85
2023/10/24 10:50:37;;;;;;;19.50;15.00;;;;;;;16.47;100.00;99325.64;176515;1263;45992;-84
2023/10/24 10:54:48;;;;;;;20.00;13.60;;;;;;;16.46;100.00;99305.20;176544;1267;46117;-85
2023/10/24 10:58:54;;;;;;;20.90;15.20;;;;;;;16.55;100.00;99293.16;176410;1264;59462;-85
2023/10/24 11:03:00;;;;;;;;;;;;;;;16.66;100.00;99281.25;176688;1267;46115;-85
2023/10/24 11:07:04;;;;;;;19.50;13.50;;;;;;;16.73;100.00;99282.36;176762;1263;45830;-84
2023/10/24 11:11:09;;;;;;;18.70;13.90;;;;;;;16.82;100.00;99280.05;176539;1264;45249;-85
2023/10/24 11:15:19;;;;;;;19.60;12.70;;;;;;;16.90;100.00;99285.47;176649;1264;45918;-84
2023/10/24 11:19:25;;;;;;;21.70;13.10;;;;;;;16.97;100.00;99287.60;176842;1264;57302;-85
2023/10/24 11:23:29;;;;;;;16.40;12.30;;;;;;;17.02;100.00;99296.07;176531;1264;46124;-82
2023/10/24 11:27:33;;;;;;;16.00;12.20;;;;;;;16.96;100.00;99302.84;175366;1264;46089;-84
2023/10/24 11:31:36;;;;;;;16.80;12.40;;;;;;;16.95;100.00;99298.95;176433;1264;46028;-85
2023/10/24 11:35:39;;;;;;;20.50;12.20;;;;;;;16.85;100.00;99291.77;176594;1262;46278;-84
2023/10/24 11:39:42;;;;;;;17.10;13.40;;;;;;;16.80;100.00;99282.96;176392;1266;58236;-85
2023/10/24 11:43:47;;;;;;;22.70;12.90;;;;;;;16.77;100.00;99275.16;176516;1263;46092;-85
2023/10/24 11:47:55;;;;;;;16.70;12.20;;;;;;;16.76;100.00;99269.50;176335;1263;46114;-85
2023/10/24 11:51:58;;;;;;;21.60;12.80;;;;;;;16.69;100.00;99259.33;176613;1264;46063;-85
2023/10/24 11:56:02;;;;;;;17.40;12.80;;;;;;;16.66;100.00;99247.17;176552;1262;46153;-84
2023/10/24 12:00:16;;;;;;;21.70;13.40;;;;;;;16.65;100.00;99231.39;176528;1264;60141;-83
2023/10/24 12:04:20;;;;;;;22.90;13.70;;;;;;;16.62;100.00;99229.46;176777;1264;46026;-84
2023/10/24 12:08:34;;;;;;;22.60;13.80;;;;;;;16.59;100.00;99225.55;176474;1266;45997;-84
2023/10/24 12:12:41;;;;;;;17.60;13.30;;;;;;;16.58;100.00;99218.16;176504;1264;45997;-85
2023/10/24 12:16:46;;;;;;;17.70;13.20;;;;;;;16.58;100.00;99210.96;176787;1263;46000;-84
2023/10/24 12:21:08;;;;;;;16.80;11.30;;;;;;;16.55;100.00;99196.36;177076;1263;59600;-85
2023/10/24 12:25:17;;;;;;;17.70;13.00;;;;;;;16.52;100.00;99190.14;176834;1267;46710;-84
2023/10/24 12:29:21;;;;;;;15.00;11.90;;;;;;;16.41;100.00;99184.38;176632;1262;46189;-84
2023/10/24 12:33:25;;;;;;;18.20;13.90;;;;;;;16.41;100.00;99170.96;176455;1266;45949;-84
2023/10/24 12:37:29;;;;;;;23.30;13.10;;;;;;;16.40;100.00;99159.52;176697;1264;45952;-84
2023/10/24 12:41:35;;;;;;;21.60;14.90;;;;;;;16.38;100.00;99147.69;176716;1263;59549;-84
2023/10/24 12:45:38;;;;;;;16.30;12.70;;;;;;;16.42;100.00;99147.96;176406;1263;46134;-84
2023/10/24 12:49:41;;;;;;;20.10;13.80;;;;;;;16.46;100.00;99146.77;176388;1264;46110;-85
2023/10/24 12:53:45;;;;;;;19.20;12.70;;;;;;;16.52;100.00;99144.66;176641;1262;45996;-84
2023/10/24 12:57:48;;;;;;;19.80;13.90;;;;;;;16.62;100.00;99148.72;176568;1264;45890;-84
2023/10/24 13:01:53;;;;;;;20.40;13.60;;;;;;;16.68;100.00;99141.88;176769;1264;58488;-84
2023/10/24 13:05:56;;;;;;;15.80;12.00;;;;;;;16.75;100.00;99139.65;177296;1262;49253;-84
2023/10/24 13:10:01;;;;;;;19.10;13.00;;;;;;;16.70;100.00;99127.27;176771;1262;46096;-83
2023/10/24 13:14:04;;;;;;;20.10;14.50;;;;;;;16.71;100.00;99117.20;177414;1263;46095;-82
2023/10/24 13:18:08;;;;;;;19.10;13.60;;;;;;;16.69;100.00;99112.55;176635;1262;46102;-82
2023/10/24 13:22:11;;;;;;;14.30;11.60;;;;;;;16.71;100.00;99110.01;176289;1262;58218;-82
2023/10/24 13:26:15;;;;;;;17.50;11.60;;;;;;;16.73;100.00;99113.91;176023;1262;46211;-82
2023/10/24 13:35:14;;;;;;;16.70;10.60;;;;;;;16.79;100.00;99113.17;179483;1266;44188;-78
2023/10/24 13:39:37;;;;;;;13.00;9.90;;;;;;;16.78;100.00;99111.66;179516;1268;44418;-78
2023/10/24 13:43:41;;;;;;;16.70;9.50;;;;;;;16.76;100.00;99107.27;178113;1269;59629;-78
2023/10/24 13:47:44;;;;;;;15.00;10.10;;;;;;;16.70;100.00;99102.27;179155;1267;46137;-78
2023/10/24 13:51:52;;;;;;;14.10;11.30;;;;;;;16.68;100.00;99093.41;179662;1267;46030;-79
2023/10/24 13:55:59;;;;;;;15.70;9.50;;;;;;;16.68;100.00;99080.20;177759;1267;46007;-79
2023/10/24 14:00:03;;;;;;;14.00;11.30;;;;;;;16.73;100.00;99075.41;179128;1268;46024;-78
2023/10/24 14:04:09;;;;;;;12.00;8.90;;;;;;;16.79;100.00;99069.17;179687;1267;59786;-78
2023/10/24 14:08:13;;;;;;;14.00;10.30;;;;;;;16.80;100.00;99067.70;178853;1267;250835;-78
2023/10/24 14:12:17;;;;;;;10.40;9.30;;;;;;;16.81;100.00;99070.67;178191;1267;46141;-78
2023/10/24 14:16:20;;;;;;;12.90;8.80;;;;;;;16.81;100.00;99066.92;178238;1267;44210;-78
2023/10/24 14:20:24;;;;;;;19.10;11.10;;;;;;;16.80;100.00;99060.88;178635;1267;45998;-78
2023/10/24 14:24:28;;;;;;;14.50;10.20;;;;;;;16.78;100.00;99051.23;179415;1267;58025;-77
2023/10/24 14:28:32;;;;;;;15.70;9.80;;;;;;;16.75;100.00;99034.07;178305;1267;46120;-79
2023/10/24 14:32:38;;;;;;;18.50;9.90;;;;;;;16.69;100.00;99023.67;177938;1270;46139;-77
2023/10/24 14:36:43;;;;;;;12.80;9.40;;;;;;;16.61;100.00;99012.96;178579;1265;46012;-79
2023/10/24 14:40:51;;;;;;;15.10;10.30;;;;;;;16.56;100.00;99011.15;178830;1265;46023;-79
2023/10/24 14:44:55;;;;;;;24.00;13.00;;;;;;;16.48;100.00;99002.16;178016;1268;60146;-79
2023/10/24 14:48:58;;;;;;;18.50;12.10;;;;;;;16.45;100.00;98999.02;177080;1267;46085;-78
2023/10/24 14:53:03;;;;;;;16.40;11.20;;;;;;;16.37;100.00;98999.71;177758;1268;45994;-79
2023/10/24 14:57:06;;;;;;;15.30;11.30;;;;;;;16.32;100.00;98981.13;177380;1268;44738;-79
2023/10/24 15:01:13;;;;;;;13.90;9.20;;;;;;;16.28;100.00;98971.06;178082;1267;46106;-78
2023/10/24 15:05:16;;;;;;;;;;;;;;;16.25;100.00;98966.23;178250;1266;58507;-78
2023/10/24 15:09:23;;;;;;;15.40;9.40;;;;;;;16.18;100.00;98957.59;178321;1267;44591;-78
2023/10/24 15:13:27;;;;;;;14.00;9.20;;;;;;;16.15;100.00;98956.41;178218;1267;46060;-79
2023/10/24 15:17:37;;;;;;;14.70;9.70;;;;;;;16.11;100.00;98949.29;177879;1267;46475;-79
2023/10/24 15:21:40;;;;;;;13.70;9.70;;;;;;;16.09;100.00;98949.55;178967;1268;45991;-79
2023/10/24 15:25:43;;;;;;;15.20;10.30;;;;;;;16.09;100.00;98952.15;177194;1268;59112;-78
2023/10/24 15:29:47;;;;;;;15.40;10.60;;;;;;;16.06;100.00;98949.16;178137;1267;46180;-79
2023/10/24 15:33:50;;;;;;;10.20;8.50;;;;;;;16.01;100.00;98949.86;178370;1267;44490;-78
2023/10/24 15:37:53;;;;;;;11.70;9.40;;;;;;;15.99;100.00;98949.64;177400;1267;46049;-78
2023/10/24 15:41:56;;;;;;;10.50;9.40;;;;;;;15.98;100.00;98948.19;179697;1267;46145;-76
2023/10/24 15:46:20;;;;;;;10.30;9.10;;;;;;;15.96;100.00;98943.23;178758;1268;58224;-78
2023/10/24 15:50:24;;;;;;;16.10;9.70;;;;;;;15.95;100.00;98932.12;179128;1267;46111;-77
2023/10/24 15:54:27;;;;;;;12.90;11.40;;;;;;;15.92;100.00;98932.48;180142;1267;43926;-77
2023/10/24 15:58:31;;;;;;;18.00;12.80;;;;;;;15.88;100.00;98933.45;179337;1268;44145;-77
2023/10/24 16:02:34;;;;;;;21.00;15.00;;;;;;;15.87;100.00;98931.78;179728;1267;44026;-78
2023/10/24 16:06:37;;;;;;;18.60;14.80;;;;;;;15.88;100.00;98923.63;180411;1267;58259;-79
2023/10/24 16:10:41;;;;;;;16.10;12.80;;;;;;;15.88;100.00;98910.42;178607;1267;44962;-78
2023/10/24 16:14:44;;;;;;;27.20;17.70;;;;;;;15.86;100.00;98908.83;177881;1267;46727;-78
2023/10/24 16:18:47;;;;;;;37.00;27.90;;;;;;;15.87;100.00;98912.89;178651;1268;45911;-78
2023/10/24 16:22:50;;;;;;;52.80;38.90;;;;;;;15.89;100.00;98911.39;177944;1267;45853;-78
2023/10/24 16:26:54;;;;;;;51.70;39.40;;;;;;;15.92;100.00;98909.24;178862;1268;59041;-79
2023/10/24 16:30:57;;;;;;;41.60;34.90;;;;;;;15.91;100.00;98909.52;179949;1268;44157;-78
2023/10/24 16:35:00;;;;;;;36.90;27.30;;;;;;;15.92;100.00;98911.15;179381;1270;46140;-78
2023/10/24 16:39:04;;;;;;;25.10;18.80;;;;;;;15.94;100.00;98908.40;179112;1267;46168;-79
2023/10/24 16:43:07;;;;;;;20.90;16.50;;;;;;;15.92;100.00;98903.34;177862;1270;45678;-81
2023/10/24 16:47:10;;;;;;;18.20;15.20;;;;;;;15.94;100.00;98899.32;177016;1267;60127;-77
2023/10/24 16:51:13;;;;;;;22.10;17.00;;;;;;;15.94;100.00;98893.80;178395;1268;45882;-77
2023/10/24 16:55:16;;;;;;;17.90;15.10;;;;;;;15.96;100.00;98893.17;177865;1267;46110;-79
2023/10/24 16:59:19;;;;;;;22.30;16.70;;;;;;;15.96;100.00;98889.19;178211;1269;46004;-79
2023/10/24 17:03:22;;;;;;;22.30;17.80;;;;;;;15.97;100.00;98891.45;177611;1266;44566;-79
2023/10/24 17:07:27;;;;;;;22.50;19.00;;;;;;;15.95;100.00;98894.33;177930;1268;60760;-78
2023/10/24 17:11:31;;;;;;;27.60;20.30;;;;;;;15.97;100.00;98898.42;176878;1267;46255;-79
2023/10/24 17:15:34;;;;;;;28.20;22.60;;;;;;;16.01;100.00;98900.96;176004;1268;45471;-80
2023/10/24 17:19:37;;;;;;;25.30;20.80;;;;;;;16.02;100.00;98905.52;176914;1269;45998;-79
2023/10/24 17:23:40;;;;;;;28.20;21.90;;;;;;;16.04;100.00;98901.95;177599;1266;46515;-78
2023/10/24 17:27:45;;;;;;;30.50;23.90;;;;;;;16.01;100.00;98894.54;178047;1268;58320;-78
2023/10/24 17:31:48;;;;;;;36.40;24.10;;;;;;;16.00;100.00;98885.00;178378;1267;46140;-78
2023/10/24 17:35:51;;;;;;;31.20;21.90;;;;;;;16.02;100.00;98874.83;179160;1266;45996;-78
2023/10/24 17:39:54;;;;;;;24.30;21.50;;;;;;;15.99;100.00;98876.73;179034;1266;46168;-78
2023/10/24 17:44:00;;;;;;;23.50;18.20;;;;;;;15.95;100.00;98876.50;178525;1269;45605;-78
2023/10/24 17:48:04;;;;;;;25.90;18.00;;;;;;;15.94;100.00;98878.90;178756;1267;59558;-78
2023/10/24 17:52:07;;;;;;;26.40;18.50;;;;;;;15.93;100.00;98881.00;179553;1268;46132;-78
2023/10/24 17:56:10;;;;;;;28.10;21.80;;;;;;;15.94;100.00;98875.84;179468;1267;44552;-79
2023/10/24 18:00:13;;;;;;;73.90;50.70;;;;;;;15.97;100.00;98866.75;178389;1267;46178;-78
2023/10/24 18:04:16;;;;;;;45.60;31.40;;;;;;;15.97;100.00;98858.00;179511;1267;45960;-79
2023/10/24 18:08:19;;;;;;;33.50;20.50;;;;;;;16.00;100.00;98849.10;178747;1267;59052;-78
2023/10/24 18:12:22;;;;;;;31.00;20.20;;;;;;;15.99;100.00;98852.32;177569;1267;45981;-79
2023/10/24 18:16:25;;;;;;;25.80;17.00;;;;;;;15.96;100.00;98841.13;178119;1267;46034;-78
2023/10/24 18:20:34;;;;;;;25.30;16.10;;;;;;;15.92;100.00;98838.24;179062;1268;44194;-80
2023/10/24 18:24:40;;;;;;;24.40;15.30;;;;;;;15.83;100.00;98835.92;177874;1267;46560;-78
2023/10/24 18:28:51;;;;;;;24.70;16.50;;;;;;;15.75;100.00;98832.12;177916;1267;59484;-79
2023/10/24 18:32:57;;;;;;;23.40;14.20;;;;;;;15.67;100.00;98833.16;177683;1267;46172;-79
2023/10/24 18:37:02;;;;;;;28.00;16.20;;;;;;;15.61;100.00;98831.80;177846;1268;44152;-78
2023/10/24 18:41:07;;;;;;;24.30;16.40;;;;;;;15.58;100.00;98816.81;179380;1267;43468;-78
2023/10/24 18:45:11;;;;;;;22.60;16.30;;;;;;;15.54;100.00;98808.79;179350;1267;46022;-78
2023/10/24 18:49:14;;;;;;;29.20;17.90;;;;;;;15.50;100.00;98806.41;177039;1268;58269;-78